sensor_id;sensor_type;location;lat;lon;timestamp;P1;durP1;ratioP1;P2;durP2;ratioP2
50483;SDS011;36409;52.168;20.878;2022-09-09T00:00:47;8.90;;;4.20;;
50483;SDS011;36409;52.168;20.878;2022-09-09T00:03:34;13.77;;;4.47;;
50483;SDS011;36409;52.168;20.878;2022-09-09T00:06:21;12.30;;;5.20;;
50483;SDS011;36409;52.168;20.878;2022-09-09T00:09:00;8.03;;;4.37;;
50483;SDS011;36409;52.168;20.878;2022-09-09T00:11:40;8.45;;;4.75;;
50483;SDS011;36409;52.168;20.878;2022-09-09T00:14:14;11.57;;;4.70;;
50483;SDS011;36409;52.168;20.878;2022-09-09T00:16:54;8.77;;;4.83;;
50483;SDS011;36409;52.168;20.878;2022-09-09T00:19:32;19.40;;;5.67;;
50483;SDS011;36409;52.168;20.878;2022-09-09T00:22:14;12.00;;;5.67;;
50483;SDS011;36409;52.168;20.878;2022-09-09T00:24:51;12.10;;;5.17;;
50483;SDS011;36409;52.168;20.878;2022-09-09T00:27:25;11.90;;;5.60;;
50483;SDS011;36409;52.168;20.878;2022-09-09T00:30:12;9.73;;;5.00;;
50483;SDS011;36409;52.168;20.878;2022-09-09T00:32:50;14.93;;;5.80;;
50483;SDS011;36409;52.168;20.878;2022-09-09T00:35:29;11.97;;;4.73;;
50483;SDS011;36409;52.168;20.878;2022-09-09T00:38:04;12.33;;;5.70;;
50483;SDS011;36409;52.168;20.878;2022-09-09T00:40:47;11.93;;;6.27;;
50483;SDS011;36409;52.168;20.878;2022-09-09T00:43:28;13.27;;;5.77;;
50483;SDS011;36409;52.168;20.878;2022-09-09T00:46:13;12.87;;;5.87;;
50483;SDS011;36409;52.168;20.878;2022-09-09T00:49:24;10.30;;;5.27;;
50483;SDS011;36409;52.168;20.878;2022-09-09T00:52:11;14.13;;;6.50;;
50483;SDS011;36409;52.168;20.878;2022-09-09T00:54:54;13.23;;;6.63;;
50483;SDS011;36409;52.168;20.878;2022-09-09T00:57:34;11.70;;;5.90;;
50483;SDS011;36409;52.168;20.878;2022-09-09T01:00:18;11.57;;;6.47;;
50483;SDS011;36409;52.168;20.878;2022-09-09T01:02:56;13.93;;;6.27;;
50483;SDS011;36409;52.168;20.878;2022-09-09T01:05:42;13.03;;;6.40;;
50483;SDS011;36409;52.168;20.878;2022-09-09T01:08:25;17.40;;;6.60;;
50483;SDS011;36409;52.168;20.878;2022-09-09T01:13:52;13.63;;;6.23;;
50483;SDS011;36409;52.168;20.878;2022-09-09T01:16:31;12.00;;;6.37;;
50483;SDS011;36409;52.168;20.878;2022-09-09T01:19:06;13.30;;;6.83;;
50483;SDS011;36409;52.168;20.878;2022-09-09T01:21:47;13.70;;;6.43;;
50483;SDS011;36409;52.168;20.878;2022-09-09T01:24:27;13.83;;;6.77;;
50483;SDS011;36409;52.168;20.878;2022-09-09T01:27:21;14.87;;;7.30;;
50483;SDS011;36409;52.168;20.878;2022-09-09T01:29:55;19.75;;;7.67;;
50483;SDS011;36409;52.168;20.878;2022-09-09T01:32:40;15.93;;;7.40;;
50483;SDS011;36409;52.168;20.878;2022-09-09T01:35:18;13.00;;;6.30;;
50483;SDS011;36409;52.168;20.878;2022-09-09T01:38:01;15.17;;;7.53;;
50483;SDS011;36409;52.168;20.878;2022-09-09T01:40:38;15.10;;;7.20;;
50483;SDS011;36409;52.168;20.878;2022-09-09T01:43:10;13.80;;;7.33;;
50483;SDS011;36409;52.168;20.878;2022-09-09T01:45:43;13.77;;;6.90;;
50483;SDS011;36409;52.168;20.878;2022-09-09T01:48:17;13.80;;;7.00;;
50483;SDS011;36409;52.168;20.878;2022-09-09T01:51:02;14.93;;;6.60;;
50483;SDS011;36409;52.168;20.878;2022-09-09T01:53:34;14.77;;;7.40;;
50483;SDS011;36409;52.168;20.878;2022-09-09T01:56:10;14.00;;;7.43;;
50483;SDS011;36409;52.168;20.878;2022-09-09T01:59:07;13.63;;;7.17;;
50483;SDS011;36409;52.168;20.878;2022-09-09T02:01:49;12.70;;;6.73;;
50483;SDS011;36409;52.168;20.878;2022-09-09T02:04:38;14.67;;;7.73;;
50483;SDS011;36409;52.168;20.878;2022-09-09T02:07:30;14.57;;;7.57;;
50483;SDS011;36409;52.168;20.878;2022-09-09T02:10:15;11.20;;;6.97;;
50483;SDS011;36409;52.168;20.878;2022-09-09T02:13:00;13.60;;;7.37;;
50483;SDS011;36409;52.168;20.878;2022-09-09T02:15:35;13.93;;;7.47;;
50483;SDS011;36409;52.168;20.878;2022-09-09T02:18:17;13.03;;;7.30;;
50483;SDS011;36409;52.168;20.878;2022-09-09T02:20:54;13.97;;;7.47;;
50483;SDS011;36409;52.168;20.878;2022-09-09T02:23:29;11.77;;;7.23;;
50483;SDS011;36409;52.168;20.878;2022-09-09T02:26:05;14.00;;;7.20;;
50483;SDS011;36409;52.168;20.878;2022-09-09T02:28:39;17.67;;;8.53;;
50483;SDS011;36409;52.168;20.878;2022-09-09T02:31:13;15.13;;;7.67;;
50483;SDS011;36409;52.168;20.878;2022-09-09T02:33:51;14.00;;;7.53;;
50483;SDS011;36409;52.168;20.878;2022-09-09T02:36:27;14.40;;;7.53;;
50483;SDS011;36409;52.168;20.878;2022-09-09T02:39:03;14.27;;;7.60;;
50483;SDS011;36409;52.168;20.878;2022-09-09T02:41:40;12.83;;;7.53;;
50483;SDS011;36409;52.168;20.878;2022-09-09T02:44:13;14.23;;;8.30;;
50483;SDS011;36409;52.168;20.878;2022-09-09T02:46:53;12.30;;;7.27;;
50483;SDS011;36409;52.168;20.878;2022-09-09T02:49:40;14.47;;;7.93;;
50483;SDS011;36409;52.168;20.878;2022-09-09T02:52:20;17.37;;;8.73;;
50483;SDS011;36409;52.168;20.878;2022-09-09T02:55:03;17.23;;;8.40;;
50483;SDS011;36409;52.168;20.878;2022-09-09T02:57:39;16.77;;;7.77;;
50483;SDS011;36409;52.168;20.878;2022-09-09T03:00:14;14.67;;;7.37;;
50483;SDS011;36409;52.168;20.878;2022-09-09T03:02:53;18.27;;;8.37;;
50483;SDS011;36409;52.168;20.878;2022-09-09T03:05:27;12.95;;;7.55;;
50483;SDS011;36409;52.168;20.878;2022-09-09T03:08:00;12.50;;;7.23;;
50483;SDS011;36409;52.168;20.878;2022-09-09T03:10:33;16.23;;;7.50;;
50483;SDS011;36409;52.168;20.878;2022-09-09T03:13:06;15.40;;;7.50;;
50483;SDS011;36409;52.168;20.878;2022-09-09T03:15:40;12.30;;;7.17;;
50483;SDS011;36409;52.168;20.878;2022-09-09T03:18:19;11.83;;;7.27;;
50483;SDS011;36409;52.168;20.878;2022-09-09T03:20:53;10.93;;;6.87;;
50483;SDS011;36409;52.168;20.878;2022-09-09T03:23:27;11.40;;;6.60;;
50483;SDS011;36409;52.168;20.878;2022-09-09T03:26:01;13.25;;;7.08;;
50483;SDS011;36409;52.168;20.878;2022-09-09T03:28:40;11.17;;;7.07;;
50483;SDS011;36409;52.168;20.878;2022-09-09T03:31:15;11.90;;;7.00;;
50483;SDS011;36409;52.168;20.878;2022-09-09T03:33:49;13.37;;;6.87;;
50483;SDS011;36409;52.168;20.878;2022-09-09T03:36:21;9.77;;;5.97;;
50483;SDS011;36409;52.168;20.878;2022-09-09T03:38:55;14.30;;;6.93;;
50483;SDS011;36409;52.168;20.878;2022-09-09T03:41:29;15.03;;;6.97;;
50483;SDS011;36409;52.168;20.878;2022-09-09T03:44:02;13.73;;;7.00;;
50483;SDS011;36409;52.168;20.878;2022-09-09T03:46:38;11.43;;;6.57;;
50483;SDS011;36409;52.168;20.878;2022-09-09T03:49:11;13.20;;;6.73;;
50483;SDS011;36409;52.168;20.878;2022-09-09T03:51:44;11.80;;;6.90;;
50483;SDS011;36409;52.168;20.878;2022-09-09T03:54:17;11.57;;;6.90;;
50483;SDS011;36409;52.168;20.878;2022-09-09T03:56:49;14.27;;;6.30;;
50483;SDS011;36409;52.168;20.878;2022-09-09T03:59:22;13.30;;;6.57;;
50483;SDS011;36409;52.168;20.878;2022-09-09T04:01:54;9.37;;;6.00;;
50483;SDS011;36409;52.168;20.878;2022-09-09T04:04:29;11.83;;;7.07;;
50483;SDS011;36409;52.168;20.878;2022-09-09T04:07:01;11.40;;;6.03;;
50483;SDS011;36409;52.168;20.878;2022-09-09T04:09:36;10.67;;;6.50;;
50483;SDS011;36409;52.168;20.878;2022-09-09T04:12:08;13.00;;;6.77;;
50483;SDS011;36409;52.168;20.878;2022-09-09T04:14:43;10.20;;;6.47;;
50483;SDS011;36409;52.168;20.878;2022-09-09T04:17:15;9.10;;;6.30;;
50483;SDS011;36409;52.168;20.878;2022-09-09T04:19:48;10.87;;;6.20;;
50483;SDS011;36409;52.168;20.878;2022-09-09T04:22:23;14.00;;;6.20;;
50483;SDS011;36409;52.168;20.878;2022-09-09T04:24:56;13.37;;;6.47;;
50483;SDS011;36409;52.168;20.878;2022-09-09T04:27:29;9.40;;;6.07;;
50483;SDS011;36409;52.168;20.878;2022-09-09T04:30:03;11.33;;;6.35;;
50483;SDS011;36409;52.168;20.878;2022-09-09T04:32:37;10.63;;;6.67;;
50483;SDS011;36409;52.168;20.878;2022-09-09T04:35:10;10.87;;;6.40;;
50483;SDS011;36409;52.168;20.878;2022-09-09T04:37:43;11.43;;;6.63;;
50483;SDS011;36409;52.168;20.878;2022-09-09T04:40:15;13.10;;;6.43;;
50483;SDS011;36409;52.168;20.878;2022-09-09T04:42:48;11.13;;;5.67;;
50483;SDS011;36409;52.168;20.878;2022-09-09T04:45:22;9.53;;;6.00;;
50483;SDS011;36409;52.168;20.878;2022-09-09T04:47:55;10.23;;;6.50;;
50483;SDS011;36409;52.168;20.878;2022-09-09T04:50:28;12.87;;;6.53;;
50483;SDS011;36409;52.168;20.878;2022-09-09T04:53:01;10.13;;;6.27;;
50483;SDS011;36409;52.168;20.878;2022-09-09T04:55:36;10.10;;;5.73;;
50483;SDS011;36409;52.168;20.878;2022-09-09T04:58:08;10.73;;;5.83;;
50483;SDS011;36409;52.168;20.878;2022-09-09T05:00:41;8.80;;;5.35;;
50483;SDS011;36409;52.168;20.878;2022-09-09T05:03:13;9.90;;;6.17;;
50483;SDS011;36409;52.168;20.878;2022-09-09T05:05:46;9.63;;;6.00;;
50483;SDS011;36409;52.168;20.878;2022-09-09T05:08:18;12.30;;;6.10;;
50483;SDS011;36409;52.168;20.878;2022-09-09T05:10:52;11.20;;;6.15;;
50483;SDS011;36409;52.168;20.878;2022-09-09T05:13:24;8.97;;;5.63;;
50483;SDS011;36409;52.168;20.878;2022-09-09T05:15:57;8.63;;;5.50;;
50483;SDS011;36409;52.168;20.878;2022-09-09T05:18:30;8.43;;;5.13;;
50483;SDS011;36409;52.168;20.878;2022-09-09T05:21:02;9.07;;;5.80;;
50483;SDS011;36409;52.168;20.878;2022-09-09T05:23:35;9.33;;;5.83;;
50483;SDS011;36409;52.168;20.878;2022-09-09T05:26:09;10.30;;;6.20;;
50483;SDS011;36409;52.168;20.878;2022-09-09T05:28:47;10.40;;;5.70;;
50483;SDS011;36409;52.168;20.878;2022-09-09T05:31:22;8.97;;;5.83;;
50483;SDS011;36409;52.168;20.878;2022-09-09T05:33:57;8.77;;;5.77;;
50483;SDS011;36409;52.168;20.878;2022-09-09T05:36:29;10.90;;;5.35;;
50483;SDS011;36409;52.168;20.878;2022-09-09T05:39:01;8.57;;;5.43;;
50483;SDS011;36409;52.168;20.878;2022-09-09T05:41:35;8.93;;;5.67;;
50483;SDS011;36409;52.168;20.878;2022-09-09T05:44:10;7.87;;;4.50;;
50483;SDS011;36409;52.168;20.878;2022-09-09T05:46:44;8.37;;;5.17;;
50483;SDS011;36409;52.168;20.878;2022-09-09T05:49:17;8.33;;;5.30;;
50483;SDS011;36409;52.168;20.878;2022-09-09T05:51:51;9.33;;;5.40;;
50483;SDS011;36409;52.168;20.878;2022-09-09T05:54:24;12.03;;;5.37;;
50483;SDS011;36409;52.168;20.878;2022-09-09T05:56:57;8.87;;;5.13;;
50483;SDS011;36409;52.168;20.878;2022-09-09T05:59:30;14.53;;;5.83;;
50483;SDS011;36409;52.168;20.878;2022-09-09T06:02:03;8.97;;;5.13;;
50483;SDS011;36409;52.168;20.878;2022-09-09T06:04:37;10.40;;;5.53;;
50483;SDS011;36409;52.168;20.878;2022-09-09T06:07:10;8.53;;;5.60;;
50483;SDS011;36409;52.168;20.878;2022-09-09T06:09:43;9.35;;;5.90;;
50483;SDS011;36409;52.168;20.878;2022-09-09T06:12:16;8.90;;;5.40;;
50483;SDS011;36409;52.168;20.878;2022-09-09T06:14:49;8.20;;;5.37;;
50483;SDS011;36409;52.168;20.878;2022-09-09T06:17:22;10.80;;;6.40;;
50483;SDS011;36409;52.168;20.878;2022-09-09T06:19:54;9.00;;;5.57;;
50483;SDS011;36409;52.168;20.878;2022-09-09T06:22:26;10.60;;;5.73;;
50483;SDS011;36409;52.168;20.878;2022-09-09T06:24:59;7.77;;;5.50;;
50483;SDS011;36409;52.168;20.878;2022-09-09T06:27:31;8.10;;;5.33;;
50483;SDS011;36409;52.168;20.878;2022-09-09T06:30:04;9.23;;;5.17;;
50483;SDS011;36409;52.168;20.878;2022-09-09T06:32:38;8.60;;;5.60;;
50483;SDS011;36409;52.168;20.878;2022-09-09T06:35:12;10.03;;;5.97;;
50483;SDS011;36409;52.168;20.878;2022-09-09T06:37:45;7.73;;;4.93;;
50483;SDS011;36409;52.168;20.878;2022-09-09T06:40:19;10.77;;;5.97;;
50483;SDS011;36409;52.168;20.878;2022-09-09T06:42:52;9.80;;;5.37;;
50483;SDS011;36409;52.168;20.878;2022-09-09T06:45:37;11.10;;;6.10;;
50483;SDS011;36409;52.168;20.878;2022-09-09T06:48:10;11.63;;;6.97;;
50483;SDS011;36409;52.168;20.878;2022-09-09T06:50:42;10.83;;;6.20;;
50483;SDS011;36409;52.168;20.878;2022-09-09T06:53:16;9.83;;;6.00;;
50483;SDS011;36409;52.168;20.878;2022-09-09T06:55:52;10.23;;;5.83;;
50483;SDS011;36409;52.168;20.878;2022-09-09T06:58:25;9.20;;;6.27;;
50483;SDS011;36409;52.168;20.878;2022-09-09T07:01:05;10.93;;;5.73;;
50483;SDS011;36409;52.168;20.878;2022-09-09T07:03:38;10.23;;;5.70;;
50483;SDS011;36409;52.168;20.878;2022-09-09T07:06:13;11.53;;;5.67;;
50483;SDS011;36409;52.168;20.878;2022-09-09T07:08:50;10.03;;;6.70;;
50483;SDS011;36409;52.168;20.878;2022-09-09T07:11:40;8.30;;;5.30;;
50483;SDS011;36409;52.168;20.878;2022-09-09T07:14:14;12.87;;;6.37;;
50483;SDS011;36409;52.168;20.878;2022-09-09T07:16:49;9.63;;;6.03;;
50483;SDS011;36409;52.168;20.878;2022-09-09T07:19:28;10.35;;;6.40;;
50483;SDS011;36409;52.168;20.878;2022-09-09T07:22:00;10.10;;;6.07;;
50483;SDS011;36409;52.168;20.878;2022-09-09T07:24:33;8.93;;;6.07;;
50483;SDS011;36409;52.168;20.878;2022-09-09T07:27:06;9.40;;;6.57;;
50483;SDS011;36409;52.168;20.878;2022-09-09T07:29:38;9.73;;;7.07;;
50483;SDS011;36409;52.168;20.878;2022-09-09T07:32:11;13.70;;;7.40;;
50483;SDS011;36409;52.168;20.878;2022-09-09T07:34:45;11.60;;;6.72;;
50483;SDS011;36409;52.168;20.878;2022-09-09T07:37:17;12.00;;;7.07;;
50483;SDS011;36409;52.168;20.878;2022-09-09T07:39:49;10.83;;;6.90;;
50483;SDS011;36409;52.168;20.878;2022-09-09T07:42:24;13.37;;;8.33;;
50483;SDS011;36409;52.168;20.878;2022-09-09T07:44:57;16.23;;;8.70;;
50483;SDS011;36409;52.168;20.878;2022-09-09T07:47:30;12.10;;;7.60;;
50483;SDS011;36409;52.168;20.878;2022-09-09T07:50:04;13.80;;;7.40;;
50483;SDS011;36409;52.168;20.878;2022-09-09T07:55:09;11.33;;;7.73;;
50483;SDS011;36409;52.168;20.878;2022-09-09T07:57:41;14.37;;;7.73;;
50483;SDS011;36409;52.168;20.878;2022-09-09T08:00:14;12.03;;;7.17;;
50483;SDS011;36409;52.168;20.878;2022-09-09T08:02:49;13.90;;;8.20;;
50483;SDS011;36409;52.168;20.878;2022-09-09T08:05:24;11.53;;;7.53;;
50483;SDS011;36409;52.168;20.878;2022-09-09T08:07:56;13.57;;;7.77;;
50483;SDS011;36409;52.168;20.878;2022-09-09T08:10:29;11.03;;;7.83;;
50483;SDS011;36409;52.168;20.878;2022-09-09T08:13:02;15.37;;;8.60;;
50483;SDS011;36409;52.168;20.878;2022-09-09T08:15:47;15.57;;;9.57;;
50483;SDS011;36409;52.168;20.878;2022-09-09T08:18:20;15.35;;;9.40;;
50483;SDS011;36409;52.168;20.878;2022-09-09T08:20:53;16.70;;;8.67;;
50483;SDS011;36409;52.168;20.878;2022-09-09T08:23:26;13.40;;;8.30;;
50483;SDS011;36409;52.168;20.878;2022-09-09T08:26:04;13.15;;;8.75;;
50483;SDS011;36409;52.168;20.878;2022-09-09T08:28:40;13.00;;;8.53;;
50483;SDS011;36409;52.168;20.878;2022-09-09T08:31:16;16.70;;;9.30;;
50483;SDS011;36409;52.168;20.878;2022-09-09T08:33:50;16.43;;;10.13;;
50483;SDS011;36409;52.168;20.878;2022-09-09T08:36:26;16.50;;;9.90;;
50483;SDS011;36409;52.168;20.878;2022-09-09T08:39:00;16.45;;;10.58;;
50483;SDS011;36409;52.168;20.878;2022-09-09T08:41:39;17.70;;;10.10;;
50483;SDS011;36409;52.168;20.878;2022-09-09T08:44:22;16.87;;;10.10;;
50483;SDS011;36409;52.168;20.878;2022-09-09T08:47:01;18.33;;;10.90;;
50483;SDS011;36409;52.168;20.878;2022-09-09T08:49:56;18.10;;;11.77;;
50483;SDS011;36409;52.168;20.878;2022-09-09T08:52:47;21.03;;;11.40;;
50483;SDS011;36409;52.168;20.878;2022-09-09T08:55:27;23.60;;;12.73;;
50483;SDS011;36409;52.168;20.878;2022-09-09T08:58:08;17.67;;;11.83;;
50483;SDS011;36409;52.168;20.878;2022-09-09T09:03:50;23.90;;;12.57;;
50483;SDS011;36409;52.168;20.878;2022-09-09T09:09:14;24.63;;;12.70;;
50483;SDS011;36409;52.168;20.878;2022-09-09T09:11:54;24.33;;;13.90;;
50483;SDS011;36409;52.168;20.878;2022-09-09T09:14:35;21.10;;;13.57;;
50483;SDS011;36409;52.168;20.878;2022-09-09T09:17:11;22.80;;;13.97;;
50483;SDS011;36409;52.168;20.878;2022-09-09T09:19:49;26.40;;;14.20;;
50483;SDS011;36409;52.168;20.878;2022-09-09T09:22:24;21.93;;;12.77;;
50483;SDS011;36409;52.168;20.878;2022-09-09T09:25:08;22.07;;;12.23;;
50483;SDS011;36409;52.168;20.878;2022-09-09T09:27:49;22.43;;;14.27;;
50483;SDS011;36409;52.168;20.878;2022-09-09T09:30:31;25.12;;;14.63;;
50483;SDS011;36409;52.168;20.878;2022-09-09T09:33:11;22.30;;;13.50;;
50483;SDS011;36409;52.168;20.878;2022-09-09T09:35:49;24.93;;;14.53;;
50483;SDS011;36409;52.168;20.878;2022-09-09T09:38:23;24.07;;;14.53;;
50483;SDS011;36409;52.168;20.878;2022-09-09T09:41:17;27.13;;;16.17;;
50483;SDS011;36409;52.168;20.878;2022-09-09T09:44:01;27.63;;;15.23;;
50483;SDS011;36409;52.168;20.878;2022-09-09T09:46:33;31.63;;;16.20;;
50483;SDS011;36409;52.168;20.878;2022-09-09T09:49:12;31.47;;;15.83;;
50483;SDS011;36409;52.168;20.878;2022-09-09T09:51:45;27.23;;;16.03;;
50483;SDS011;36409;52.168;20.878;2022-09-09T09:54:20;26.93;;;15.87;;
50483;SDS011;36409;52.168;20.878;2022-09-09T09:57:08;32.10;;;16.83;;
50483;SDS011;36409;52.168;20.878;2022-09-09T09:59:42;29.43;;;14.87;;
50483;SDS011;36409;52.168;20.878;2022-09-09T10:02:21;25.70;;;15.17;;
50483;SDS011;36409;52.168;20.878;2022-09-09T10:05:03;31.20;;;15.97;;
50483;SDS011;36409;52.168;20.878;2022-09-09T10:07:37;30.77;;;16.30;;
50483;SDS011;36409;52.168;20.878;2022-09-09T10:10:09;27.60;;;15.43;;
50483;SDS011;36409;52.168;20.878;2022-09-09T10:12:48;26.73;;;15.20;;
50483;SDS011;36409;52.168;20.878;2022-09-09T10:15:31;25.47;;;14.57;;
50483;SDS011;36409;52.168;20.878;2022-09-09T10:18:15;30.50;;;16.43;;
50483;SDS011;36409;52.168;20.878;2022-09-09T10:21:02;28.87;;;15.33;;
50483;SDS011;36409;52.168;20.878;2022-09-09T10:23:45;28.63;;;16.60;;
50483;SDS011;36409;52.168;20.878;2022-09-09T10:26:38;34.17;;;18.00;;
50483;SDS011;36409;52.168;20.878;2022-09-09T10:29:24;31.63;;;16.57;;
50483;SDS011;36409;52.168;20.878;2022-09-09T10:32:10;31.80;;;17.53;;
50483;SDS011;36409;52.168;20.878;2022-09-09T10:34:58;35.70;;;16.50;;
50483;SDS011;36409;52.168;20.878;2022-09-09T10:37:43;33.10;;;17.10;;
50483;SDS011;36409;52.168;20.878;2022-09-09T10:40:31;32.03;;;17.83;;
50483;SDS011;36409;52.168;20.878;2022-09-09T10:43:12;34.97;;;18.80;;
50483;SDS011;36409;52.168;20.878;2022-09-09T10:45:56;31.47;;;17.80;;
50483;SDS011;36409;52.168;20.878;2022-09-09T10:48:50;30.08;;;15.53;;
50483;SDS011;36409;52.168;20.878;2022-09-09T10:51:38;30.17;;;18.47;;
50483;SDS011;36409;52.168;20.878;2022-09-09T10:54:21;27.53;;;16.47;;
50483;SDS011;36409;52.168;20.878;2022-09-09T10:57:02;34.60;;;18.25;;
50483;SDS011;36409;52.168;20.878;2022-09-09T10:59:40;34.77;;;18.27;;
50483;SDS011;36409;52.168;20.878;2022-09-09T11:02:17;34.03;;;19.37;;
50483;SDS011;36409;52.168;20.878;2022-09-09T11:04:57;34.23;;;18.77;;
50483;SDS011;36409;52.168;20.878;2022-09-09T11:07:34;28.43;;;16.30;;
50483;SDS011;36409;52.168;20.878;2022-09-09T11:10:15;32.17;;;18.27;;
50483;SDS011;36409;52.168;20.878;2022-09-09T11:15:31;29.23;;;16.53;;
50483;SDS011;36409;52.168;20.878;2022-09-09T11:18:15;32.90;;;18.07;;
50483;SDS011;36409;52.168;20.878;2022-09-09T11:20:51;34.37;;;18.93;;
50483;SDS011;36409;52.168;20.878;2022-09-09T11:23:30;44.57;;;21.03;;
50483;SDS011;36409;52.168;20.878;2022-09-09T11:26:12;32.23;;;18.77;;
50483;SDS011;36409;52.168;20.878;2022-09-09T11:28:54;36.13;;;19.70;;
50483;SDS011;36409;52.168;20.878;2022-09-09T11:31:42;38.97;;;20.70;;
50483;SDS011;36409;52.168;20.878;2022-09-09T11:37:26;37.00;;;19.73;;
50483;SDS011;36409;52.168;20.878;2022-09-09T11:40:23;34.97;;;19.10;;
50483;SDS011;36409;52.168;20.878;2022-09-09T11:43:03;34.63;;;19.70;;
50483;SDS011;36409;52.168;20.878;2022-09-09T11:45:42;34.10;;;18.00;;
50483;SDS011;36409;52.168;20.878;2022-09-09T11:48:31;32.80;;;19.37;;
50483;SDS011;36409;52.168;20.878;2022-09-09T11:51:06;35.03;;;19.40;;
50483;SDS011;36409;52.168;20.878;2022-09-09T11:53:49;32.50;;;18.60;;
50483;SDS011;36409;52.168;20.878;2022-09-09T11:56:27;34.67;;;18.77;;
50483;SDS011;36409;52.168;20.878;2022-09-09T11:59:02;35.07;;;19.57;;
50483;SDS011;36409;52.168;20.878;2022-09-09T12:01:36;33.53;;;19.67;;
50483;SDS011;36409;52.168;20.878;2022-09-09T12:04:13;36.77;;;20.67;;
50483;SDS011;36409;52.168;20.878;2022-09-09T12:09:56;39.90;;;20.33;;
50483;SDS011;36409;52.168;20.878;2022-09-09T12:12:32;40.10;;;23.37;;
50483;SDS011;36409;52.168;20.878;2022-09-09T12:15:19;40.07;;;22.70;;
50483;SDS011;36409;52.168;20.878;2022-09-09T12:17:57;38.27;;;22.07;;
50483;SDS011;36409;52.168;20.878;2022-09-09T12:20:33;41.10;;;23.67;;
50483;SDS011;36409;52.168;20.878;2022-09-09T12:23:17;43.23;;;24.23;;
50483;SDS011;36409;52.168;20.878;2022-09-09T12:25:59;43.83;;;24.43;;
50483;SDS011;36409;52.168;20.878;2022-09-09T12:28:46;40.87;;;23.37;;
50483;SDS011;36409;52.168;20.878;2022-09-09T12:31:27;37.83;;;22.73;;
50483;SDS011;36409;52.168;20.878;2022-09-09T12:34:10;45.93;;;25.30;;
50483;SDS011;36409;52.168;20.878;2022-09-09T12:36:46;49.97;;;24.90;;
50483;SDS011;36409;52.168;20.878;2022-09-09T12:39:27;41.07;;;22.83;;
50483;SDS011;36409;52.168;20.878;2022-09-09T12:42:04;45.57;;;23.83;;
50483;SDS011;36409;52.168;20.878;2022-09-09T12:47:48;42.43;;;22.87;;
50483;SDS011;36409;52.168;20.878;2022-09-09T12:50:25;46.13;;;24.47;;
50483;SDS011;36409;52.168;20.878;2022-09-09T12:52:59;42.97;;;24.00;;
50483;SDS011;36409;52.168;20.878;2022-09-09T12:55:38;43.10;;;23.97;;
50483;SDS011;36409;52.168;20.878;2022-09-09T12:58:19;43.07;;;22.37;;
50483;SDS011;36409;52.168;20.878;2022-09-09T13:00:53;39.77;;;22.83;;
50483;SDS011;36409;52.168;20.878;2022-09-09T13:03:26;39.13;;;23.27;;
50483;SDS011;36409;52.168;20.878;2022-09-09T13:06:10;42.50;;;23.10;;
50483;SDS011;36409;52.168;20.878;2022-09-09T13:08:44;43.13;;;23.47;;
50483;SDS011;36409;52.168;20.878;2022-09-09T13:11:16;46.83;;;24.67;;
50483;SDS011;36409;52.168;20.878;2022-09-09T13:13:52;45.17;;;25.17;;
50483;SDS011;36409;52.168;20.878;2022-09-09T13:16:27;46.00;;;26.17;;
50483;SDS011;36409;52.168;20.878;2022-09-09T13:19:06;47.50;;;25.77;;
50483;SDS011;36409;52.168;20.878;2022-09-09T13:21:43;40.63;;;23.27;;
50483;SDS011;36409;52.168;20.878;2022-09-09T13:24:26;38.57;;;23.37;;
50483;SDS011;36409;52.168;20.878;2022-09-09T13:27:01;42.90;;;25.03;;
50483;SDS011;36409;52.168;20.878;2022-09-09T13:29:52;39.03;;;23.57;;
50483;SDS011;36409;52.168;20.878;2022-09-09T13:32:27;52.77;;;26.07;;
50483;SDS011;36409;52.168;20.878;2022-09-09T13:35:01;47.20;;;24.00;;
50483;SDS011;36409;52.168;20.878;2022-09-09T13:37:36;46.03;;;24.63;;
50483;SDS011;36409;52.168;20.878;2022-09-09T13:40:16;47.00;;;25.77;;
50483;SDS011;36409;52.168;20.878;2022-09-09T13:42:52;47.40;;;24.10;;
50483;SDS011;36409;52.168;20.878;2022-09-09T13:45:28;47.07;;;25.00;;
50483;SDS011;36409;52.168;20.878;2022-09-09T13:48:00;48.17;;;25.70;;
50483;SDS011;36409;52.168;20.878;2022-09-09T13:50:42;44.50;;;23.93;;
50483;SDS011;36409;52.168;20.878;2022-09-09T13:53:26;49.30;;;24.90;;
50483;SDS011;36409;52.168;20.878;2022-09-09T13:55:59;42.67;;;24.32;;
50483;SDS011;36409;52.168;20.878;2022-09-09T13:58:32;62.33;;;27.63;;
50483;SDS011;36409;52.168;20.878;2022-09-09T14:01:04;42.73;;;23.77;;
50483;SDS011;36409;52.168;20.878;2022-09-09T14:03:36;46.33;;;24.57;;
50483;SDS011;36409;52.168;20.878;2022-09-09T14:06:09;48.43;;;26.03;;
50483;SDS011;36409;52.168;20.878;2022-09-09T14:08:42;43.60;;;23.83;;
50483;SDS011;36409;52.168;20.878;2022-09-09T14:11:15;44.80;;;23.93;;
50483;SDS011;36409;52.168;20.878;2022-09-09T14:13:48;49.57;;;22.80;;
50483;SDS011;36409;52.168;20.878;2022-09-09T14:16:20;44.33;;;23.67;;
50483;SDS011;36409;52.168;20.878;2022-09-09T14:18:52;47.97;;;23.27;;
50483;SDS011;36409;52.168;20.878;2022-09-09T14:21:26;45.33;;;23.47;;
50483;SDS011;36409;52.168;20.878;2022-09-09T14:23:58;47.07;;;23.80;;
50483;SDS011;36409;52.168;20.878;2022-09-09T14:26:30;39.37;;;21.87;;
50483;SDS011;36409;52.168;20.878;2022-09-09T14:29:03;39.53;;;20.60;;
50483;SDS011;36409;52.168;20.878;2022-09-09T14:31:35;48.80;;;22.93;;
50483;SDS011;36409;52.168;20.878;2022-09-09T14:34:07;41.20;;;22.50;;
50483;SDS011;36409;52.168;20.878;2022-09-09T14:36:40;47.95;;;23.25;;
50483;SDS011;36409;52.168;20.878;2022-09-09T14:39:13;45.23;;;22.98;;
50483;SDS011;36409;52.168;20.878;2022-09-09T14:41:46;44.80;;;23.10;;
50483;SDS011;36409;52.168;20.878;2022-09-09T14:44:18;44.53;;;21.90;;
50483;SDS011;36409;52.168;20.878;2022-09-09T14:46:52;47.27;;;25.17;;
50483;SDS011;36409;52.168;20.878;2022-09-09T14:49:25;48.00;;;26.55;;
50483;SDS011;36409;52.168;20.878;2022-09-09T14:51:58;50.83;;;25.53;;
50483;SDS011;36409;52.168;20.878;2022-09-09T14:54:31;44.73;;;22.73;;
50483;SDS011;36409;52.168;20.878;2022-09-09T14:57:03;39.43;;;22.13;;
50483;SDS011;36409;52.168;20.878;2022-09-09T14:59:35;40.00;;;21.33;;
50483;SDS011;36409;52.168;20.878;2022-09-09T15:02:09;41.63;;;21.60;;
50483;SDS011;36409;52.168;20.878;2022-09-09T15:04:43;39.87;;;20.87;;
50483;SDS011;36409;52.168;20.878;2022-09-09T15:07:15;39.33;;;21.07;;
50483;SDS011;36409;52.168;20.878;2022-09-09T15:09:49;35.83;;;20.60;;
50483;SDS011;36409;52.168;20.878;2022-09-09T15:12:23;37.63;;;20.37;;
50483;SDS011;36409;52.168;20.878;2022-09-09T15:14:57;37.70;;;19.73;;
50483;SDS011;36409;52.168;20.878;2022-09-09T15:17:29;35.03;;;20.60;;
50483;SDS011;36409;52.168;20.878;2022-09-09T15:20:02;36.93;;;20.67;;
50483;SDS011;36409;52.168;20.878;2022-09-09T15:25:07;40.47;;;20.20;;
50483;SDS011;36409;52.168;20.878;2022-09-09T15:27:41;37.20;;;20.77;;
50483;SDS011;36409;52.168;20.878;2022-09-09T15:30:13;42.37;;;20.33;;
50483;SDS011;36409;52.168;20.878;2022-09-09T15:32:46;34.20;;;20.17;;
50483;SDS011;36409;52.168;20.878;2022-09-09T15:35:18;39.67;;;21.33;;
50483;SDS011;36409;52.168;20.878;2022-09-09T15:37:51;38.00;;;19.80;;
50483;SDS011;36409;52.168;20.878;2022-09-09T15:40:23;37.10;;;22.40;;